sensor_id;sensor_type;location;lat;lon;timestamp;P1;durP1;ratioP1;P2;durP2;ratioP2
30553;SDS011;17335;50.720;7.452;2023-10-31T00:00:20;1.25;;;0.70;;
30553;SDS011;17335;50.720;7.452;2023-10-31T00:02:46;4.05;;;1.00;;
30553;SDS011;17335;50.720;7.452;2023-10-31T00:05:13;1.38;;;0.88;;
30553;SDS011;17335;50.720;7.452;2023-10-31T00:07:40;1.48;;;0.90;;
30553;SDS011;17335;50.720;7.452;2023-10-31T00:10:06;1.35;;;0.88;;
30553;SDS011;17335;50.720;7.452;2023-10-31T00:12:33;1.15;;;0.80;;
30553;SDS011;17335;50.720;7.452;2023-10-31T00:15:00;1.13;;;0.82;;
30553;SDS011;17335;50.720;7.452;2023-10-31T00:17:26;0.90;;;0.80;;
30553;SDS011;17335;50.720;7.452;2023-10-31T00:19:53;1.50;;;0.90;;
30553;SDS011;17335;50.720;7.452;2023-10-31T00:22:19;1.38;;;0.82;;
30553;SDS011;17335;50.720;7.452;2023-10-31T00:24:46;0.98;;;0.70;;
30553;SDS011;17335;50.720;7.452;2023-10-31T00:27:12;1.67;;;0.80;;
30553;SDS011;17335;50.720;7.452;2023-10-31T00:29:41;1.58;;;0.80;;
30553;SDS011;17335;50.720;7.452;2023-10-31T00:32:07;1.27;;;0.90;;
30553;SDS011;17335;50.720;7.452;2023-10-31T00:34:34;1.42;;;0.80;;
30553;SDS011;17335;50.720;7.452;2023-10-31T00:37:00;1.48;;;0.80;;
30553;SDS011;17335;50.720;7.452;2023-10-31T00:39:28;1.15;;;0.70;;
30553;SDS011;17335;50.720;7.452;2023-10-31T00:41:54;0.90;;;0.70;;
30553;SDS011;17335;50.720;7.452;2023-10-31T00:44:21;2.53;;;0.80;;
30553;SDS011;17335;50.720;7.452;2023-10-31T00:46:47;0.80;;;0.70;;
30553;SDS011;17335;50.720;7.452;2023-10-31T00:49:14;1.77;;;0.80;;
30553;SDS011;17335;50.720;7.452;2023-10-31T00:51:40;3.47;;;0.80;;
30553;SDS011;17335;50.720;7.452;2023-10-31T00:54:07;1.33;;;0.90;;
30553;SDS011;17335;50.720;7.452;2023-10-31T00:56:33;1.50;;;0.80;;
30553;SDS011;17335;50.720;7.452;2023-10-31T00:59:00;1.00;;;0.73;;
30553;SDS011;17335;50.720;7.452;2023-10-31T01:01:28;0.95;;;0.80;;
30553;SDS011;17335;50.720;7.452;2023-10-31T01:03:54;0.82;;;0.63;;
30553;SDS011;17335;50.720;7.452;2023-10-31T01:06:21;4.10;;;1.00;;
30553;SDS011;17335;50.720;7.452;2023-10-31T01:08:47;1.35;;;0.77;;
30553;SDS011;17335;50.720;7.452;2023-10-31T01:11:14;4.93;;;0.80;;
30553;SDS011;17335;50.720;7.452;2023-10-31T01:13:40;0.90;;;0.70;;
30553;SDS011;17335;50.720;7.452;2023-10-31T01:16:07;1.38;;;0.70;;
30553;SDS011;17335;50.720;7.452;2023-10-31T01:18:33;0.98;;;0.70;;
30553;SDS011;17335;50.720;7.452;2023-10-31T01:21:00;0.95;;;0.77;;
30553;SDS011;17335;50.720;7.452;2023-10-31T01:23:27;1.83;;;0.60;;
30553;SDS011;17335;50.720;7.452;2023-10-31T01:25:53;3.58;;;0.88;;
30553;SDS011;17335;50.720;7.452;2023-10-31T01:28:20;1.23;;;0.80;;
30553;SDS011;17335;50.720;7.452;2023-10-31T01:30:46;1.73;;;0.90;;
30553;SDS011;17335;50.720;7.452;2023-10-31T01:33:13;1.67;;;1.00;;
30553;SDS011;17335;50.720;7.452;2023-10-31T01:35:40;8.10;;;1.20;;
30553;SDS011;17335;50.720;7.452;2023-10-31T01:38:06;1.23;;;0.80;;
30553;SDS011;17335;50.720;7.452;2023-10-31T01:40:33;1.48;;;1.00;;
30553;SDS011;17335;50.720;7.452;2023-10-31T01:42:59;2.13;;;1.30;;
30553;SDS011;17335;50.720;7.452;2023-10-31T01:45:26;2.58;;;1.40;;
30553;SDS011;17335;50.720;7.452;2023-10-31T01:47:52;4.05;;;1.20;;
30553;SDS011;17335;50.720;7.452;2023-10-31T01:50:19;3.55;;;1.40;;
30553;SDS011;17335;50.720;7.452;2023-10-31T01:52:46;2.40;;;1.23;;
30553;SDS011;17335;50.720;7.452;2023-10-31T01:55:13;1.25;;;0.85;;
30553;SDS011;17335;50.720;7.452;2023-10-31T01:57:39;1.98;;;1.08;;
30553;SDS011;17335;50.720;7.452;2023-10-31T02:00:06;1.55;;;1.10;;
30553;SDS011;17335;50.720;7.452;2023-10-31T02:02:33;1.63;;;1.00;;
30553;SDS011;17335;50.720;7.452;2023-10-31T02:05:04;3.38;;;1.35;;
30553;SDS011;17335;50.720;7.452;2023-10-31T02:07:31;1.35;;;1.00;;
30553;SDS011;17335;50.720;7.452;2023-10-31T02:09:57;3.20;;;1.20;;
30553;SDS011;17335;50.720;7.452;2023-10-31T02:12:31;2.28;;;1.10;;
30553;SDS011;17335;50.720;7.452;2023-10-31T02:15:01;3.30;;;1.13;;
30553;SDS011;17335;50.720;7.452;2023-10-31T02:17:28;1.90;;;1.00;;
30553;SDS011;17335;50.720;7.452;2023-10-31T02:19:55;1.52;;;1.00;;
30553;SDS011;17335;50.720;7.452;2023-10-31T02:22:22;3.47;;;1.02;;
30553;SDS011;17335;50.720;7.452;2023-10-31T02:24:49;2.05;;;1.00;;
30553;SDS011;17335;50.720;7.452;2023-10-31T02:27:15;4.03;;;1.05;;
30553;SDS011;17335;50.720;7.452;2023-10-31T02:29:42;5.13;;;1.20;;
30553;SDS011;17335;50.720;7.452;2023-10-31T02:32:08;1.77;;;1.10;;
30553;SDS011;17335;50.720;7.452;2023-10-31T02:34:35;2.13;;;0.98;;
30553;SDS011;17335;50.720;7.452;2023-10-31T02:37:02;3.63;;;1.38;;
30553;SDS011;17335;50.720;7.452;2023-10-31T02:39:28;2.45;;;1.60;;
30553;SDS011;17335;50.720;7.452;2023-10-31T02:41:55;4.05;;;1.00;;
30553;SDS011;17335;50.720;7.452;2023-10-31T02:44:22;2.75;;;1.00;;
30553;SDS011;17335;50.720;7.452;2023-10-31T02:46:48;3.67;;;1.05;;
30553;SDS011;17335;50.720;7.452;2023-10-31T02:49:15;1.67;;;1.05;;
30553;SDS011;17335;50.720;7.452;2023-10-31T02:51:41;1.83;;;0.95;;
30553;SDS011;17335;50.720;7.452;2023-10-31T02:54:08;1.75;;;0.88;;
30553;SDS011;17335;50.720;7.452;2023-10-31T02:56:35;1.80;;;1.08;;
30553;SDS011;17335;50.720;7.452;2023-10-31T02:59:01;2.05;;;0.70;;
30553;SDS011;17335;50.720;7.452;2023-10-31T03:01:28;3.00;;;0.88;;
30553;SDS011;17335;50.720;7.452;2023-10-31T03:03:55;3.80;;;1.05;;
30553;SDS011;17335;50.720;7.452;2023-10-31T03:06:22;2.88;;;0.80;;
30553;SDS011;17335;50.720;7.452;2023-10-31T03:08:48;4.97;;;0.80;;
30553;SDS011;17335;50.720;7.452;2023-10-31T03:11:24;1.60;;;0.70;;
30553;SDS011;17335;50.720;7.452;2023-10-31T03:13:52;0.77;;;0.68;;
30553;SDS011;17335;50.720;7.452;2023-10-31T03:16:22;2.72;;;0.75;;
30553;SDS011;17335;50.720;7.452;2023-10-31T03:18:49;5.00;;;0.90;;
30553;SDS011;17335;50.720;7.452;2023-10-31T03:21:16;0.80;;;0.70;;
30553;SDS011;17335;50.720;7.452;2023-10-31T03:23:47;1.20;;;0.60;;
30553;SDS011;17335;50.720;7.452;2023-10-31T03:26:15;2.28;;;0.55;;
30553;SDS011;17335;50.720;7.452;2023-10-31T03:28:43;7.15;;;0.90;;
30553;SDS011;17335;50.720;7.452;2023-10-31T03:31:10;2.38;;;0.70;;
30553;SDS011;17335;50.720;7.452;2023-10-31T03:33:38;2.70;;;0.80;;
30553;SDS011;17335;50.720;7.452;2023-10-31T03:36:05;1.30;;;0.60;;
30553;SDS011;17335;50.720;7.452;2023-10-31T03:38:32;1.30;;;0.68;;
30553;SDS011;17335;50.720;7.452;2023-10-31T03:40:58;0.63;;;0.55;;
30553;SDS011;17335;50.720;7.452;2023-10-31T03:43:28;3.33;;;1.02;;
30553;SDS011;17335;50.720;7.452;2023-10-31T03:45:55;1.02;;;0.60;;
30553;SDS011;17335;50.720;7.452;2023-10-31T03:48:21;1.10;;;0.52;;
30553;SDS011;17335;50.720;7.452;2023-10-31T03:50:48;1.02;;;0.57;;
30553;SDS011;17335;50.720;7.452;2023-10-31T03:53:16;1.10;;;0.60;;
30553;SDS011;17335;50.720;7.452;2023-10-31T03:55:42;2.17;;;1.00;;
30553;SDS011;17335;50.720;7.452;2023-10-31T03:58:09;0.98;;;0.55;;
30553;SDS011;17335;50.720;7.452;2023-10-31T04:00:35;0.88;;;0.63;;
30553;SDS011;17335;50.720;7.452;2023-10-31T04:03:02;1.85;;;0.85;;
30553;SDS011;17335;50.720;7.452;2023-10-31T04:05:29;1.55;;;0.70;;
30553;SDS011;17335;50.720;7.452;2023-10-31T04:07:55;3.15;;;0.65;;
30553;SDS011;17335;50.720;7.452;2023-10-31T04:10:22;3.28;;;0.70;;
30553;SDS011;17335;50.720;7.452;2023-10-31T04:12:48;1.13;;;0.60;;
30553;SDS011;17335;50.720;7.452;2023-10-31T04:15:15;3.03;;;0.50;;
30553;SDS011;17335;50.720;7.452;2023-10-31T04:17:41;3.80;;;0.70;;
30553;SDS011;17335;50.720;7.452;2023-10-31T04:20:08;1.45;;;0.63;;
30553;SDS011;17335;50.720;7.452;2023-10-31T04:22:35;3.13;;;1.25;;
30553;SDS011;17335;50.720;7.452;2023-10-31T04:25:02;2.13;;;0.57;;
30553;SDS011;17335;50.720;7.452;2023-10-31T04:27:29;1.20;;;0.50;;
30553;SDS011;17335;50.720;7.452;2023-10-31T04:29:55;2.35;;;0.60;;
30553;SDS011;17335;50.720;7.452;2023-10-31T04:32:22;0.73;;;0.52;;
30553;SDS011;17335;50.720;7.452;2023-10-31T04:34:48;0.70;;;0.60;;
30553;SDS011;17335;50.720;7.452;2023-10-31T04:37:15;1.40;;;0.60;;
30553;SDS011;17335;50.720;7.452;2023-10-31T04:39:41;1.30;;;0.52;;
30553;SDS011;17335;50.720;7.452;2023-10-31T04:42:07;0.82;;;0.60;;
30553;SDS011;17335;50.720;7.452;2023-10-31T04:44:34;1.10;;;0.60;;
30553;SDS011;17335;50.720;7.452;2023-10-31T04:47:01;0.60;;;0.50;;
30553;SDS011;17335;50.720;7.452;2023-10-31T04:49:27;0.85;;;0.45;;
30553;SDS011;17335;50.720;7.452;2023-10-31T04:51:54;1.10;;;0.60;;
30553;SDS011;17335;50.720;7.452;2023-10-31T04:54:20;1.42;;;0.88;;
30553;SDS011;17335;50.720;7.452;2023-10-31T04:56:47;1.33;;;0.50;;
30553;SDS011;17335;50.720;7.452;2023-10-31T04:59:14;0.93;;;0.70;;
30553;SDS011;17335;50.720;7.452;2023-10-31T05:01:40;0.93;;;0.70;;
30553;SDS011;17335;50.720;7.452;2023-10-31T05:04:07;0.50;;;0.50;;
30553;SDS011;17335;50.720;7.452;2023-10-31T05:06:38;2.50;;;0.63;;
30553;SDS011;17335;50.720;7.452;2023-10-31T05:09:05;0.70;;;0.60;;
30553;SDS011;17335;50.720;7.452;2023-10-31T05:11:32;0.93;;;0.63;;
30553;SDS011;17335;50.720;7.452;2023-10-31T05:13:59;1.13;;;0.60;;
30553;SDS011;17335;50.720;7.452;2023-10-31T05:16:26;1.08;;;0.73;;
30553;SDS011;17335;50.720;7.452;2023-10-31T05:18:52;1.77;;;0.68;;
30553;SDS011;17335;50.720;7.452;2023-10-31T05:21:19;1.13;;;0.60;;
30553;SDS011;17335;50.720;7.452;2023-10-31T05:23:50;1.77;;;0.65;;
30553;SDS011;17335;50.720;7.452;2023-10-31T05:26:16;0.57;;;0.50;;
30553;SDS011;17335;50.720;7.452;2023-10-31T05:28:43;1.10;;;0.60;;
30553;SDS011;17335;50.720;7.452;2023-10-31T05:31:10;0.60;;;0.50;;
30553;SDS011;17335;50.720;7.452;2023-10-31T05:33:36;0.82;;;0.60;;
30553;SDS011;17335;50.720;7.452;2023-10-31T05:36:03;0.80;;;0.63;;
30553;SDS011;17335;50.720;7.452;2023-10-31T05:38:30;1.10;;;0.60;;
30553;SDS011;17335;50.720;7.452;2023-10-31T05:40:56;1.15;;;0.70;;
30553;SDS011;17335;50.720;7.452;2023-10-31T05:43:23;5.20;;;0.70;;
30553;SDS011;17335;50.720;7.452;2023-10-31T05:45:49;0.50;;;0.50;;
30553;SDS011;17335;50.720;7.452;2023-10-31T05:48:16;2.75;;;0.80;;
30553;SDS011;17335;50.720;7.452;2023-10-31T05:50:43;0.88;;;0.60;;
30553;SDS011;17335;50.720;7.452;2023-10-31T05:53:09;1.48;;;0.80;;
30553;SDS011;17335;50.720;7.452;2023-10-31T05:55:40;1.92;;;0.80;;
30553;SDS011;17335;50.720;7.452;2023-10-31T05:58:07;1.08;;;0.70;;
30553;SDS011;17335;50.720;7.452;2023-10-31T06:00:33;3.13;;;0.70;;
30553;SDS011;17335;50.720;7.452;2023-10-31T06:03:01;0.73;;;0.60;;
30553;SDS011;17335;50.720;7.452;2023-10-31T06:05:29;0.93;;;0.63;;
30553;SDS011;17335;50.720;7.452;2023-10-31T06:07:55;0.80;;;0.70;;
30553;SDS011;17335;50.720;7.452;2023-10-31T06:10:22;0.95;;;0.80;;
30553;SDS011;17335;50.720;7.452;2023-10-31T06:12:48;3.70;;;0.90;;
30553;SDS011;17335;50.720;7.452;2023-10-31T06:15:17;1.70;;;0.90;;
30553;SDS011;17335;50.720;7.452;2023-10-31T06:17:44;0.88;;;0.80;;
30553;SDS011;17335;50.720;7.452;2023-10-31T06:20:10;4.93;;;1.13;;
30553;SDS011;17335;50.720;7.452;2023-10-31T06:22:37;1.00;;;0.90;;
30553;SDS011;17335;50.720;7.452;2023-10-31T06:25:04;3.50;;;0.80;;
30553;SDS011;17335;50.720;7.452;2023-10-31T06:27:30;1.73;;;0.98;;
30553;SDS011;17335;50.720;7.452;2023-10-31T06:29:57;1.45;;;0.80;;
30553;SDS011;17335;50.720;7.452;2023-10-31T06:32:43;1.50;;;0.90;;
30553;SDS011;17335;50.720;7.452;2023-10-31T06:35:10;3.88;;;1.15;;
30553;SDS011;17335;50.720;7.452;2023-10-31T06:37:36;1.90;;;0.88;;
30553;SDS011;17335;50.720;7.452;2023-10-31T06:40:04;1.00;;;0.75;;
30553;SDS011;17335;50.720;7.452;2023-10-31T06:42:31;1.73;;;0.88;;
30553;SDS011;17335;50.720;7.452;2023-10-31T06:44:58;1.40;;;0.80;;
30553;SDS011;17335;50.720;7.452;2023-10-31T06:47:24;1.60;;;0.88;;
30553;SDS011;17335;50.720;7.452;2023-10-31T06:49:51;2.17;;;0.90;;
30553;SDS011;17335;50.720;7.452;2023-10-31T06:52:18;1.55;;;1.00;;
30553;SDS011;17335;50.720;7.452;2023-10-31T06:54:44;2.63;;;0.80;;
30553;SDS011;17335;50.720;7.452;2023-10-31T06:57:11;1.20;;;0.80;;
30553;SDS011;17335;50.720;7.452;2023-10-31T06:59:37;1.70;;;0.70;;
30553;SDS011;17335;50.720;7.452;2023-10-31T07:02:04;1.83;;;1.02;;
30553;SDS011;17335;50.720;7.452;2023-10-31T07:04:31;1.42;;;0.85;;
30553;SDS011;17335;50.720;7.452;2023-10-31T07:06:57;2.58;;;0.80;;
30553;SDS011;17335;50.720;7.452;2023-10-31T07:09:24;1.98;;;0.90;;
30553;SDS011;17335;50.720;7.452;2023-10-31T07:11:52;1.45;;;0.90;;
30553;SDS011;17335;50.720;7.452;2023-10-31T07:14:19;1.23;;;0.80;;
30553;SDS011;17335;50.720;7.452;2023-10-31T07:16:46;6.45;;;0.98;;
30553;SDS011;17335;50.720;7.452;2023-10-31T07:19:14;1.27;;;0.90;;
30553;SDS011;17335;50.720;7.452;2023-10-31T07:21:40;2.20;;;1.05;;
30553;SDS011;17335;50.720;7.452;2023-10-31T07:24:07;3.85;;;1.20;;
30553;SDS011;17335;50.720;7.452;2023-10-31T07:26:35;3.15;;;0.90;;
30553;SDS011;17335;50.720;7.452;2023-10-31T07:29:02;3.92;;;1.10;;
30553;SDS011;17335;50.720;7.452;2023-10-31T07:31:28;3.08;;;1.00;;
30553;SDS011;17335;50.720;7.452;2023-10-31T07:33:55;2.53;;;1.02;;
30553;SDS011;17335;50.720;7.452;2023-10-31T07:36:22;2.67;;;0.95;;
30553;SDS011;17335;50.720;7.452;2023-10-31T07:38:48;3.83;;;1.00;;
30553;SDS011;17335;50.720;7.452;2023-10-31T07:41:15;1.45;;;0.90;;
30553;SDS011;17335;50.720;7.452;2023-10-31T07:43:42;2.10;;;1.10;;
30553;SDS011;17335;50.720;7.452;2023-10-31T07:46:08;4.53;;;0.98;;
30553;SDS011;17335;50.720;7.452;2023-10-31T07:48:35;2.00;;;1.00;;
30553;SDS011;17335;50.720;7.452;2023-10-31T07:51:02;5.00;;;1.20;;
30553;SDS011;17335;50.720;7.452;2023-10-31T07:53:29;1.77;;;0.90;;
30553;SDS011;17335;50.720;7.452;2023-10-31T07:55:56;2.28;;;1.15;;
30553;SDS011;17335;50.720;7.452;2023-10-31T07:58:22;2.60;;;1.20;;
30553;SDS011;17335;50.720;7.452;2023-10-31T08:00:49;2.88;;;1.25;;
30553;SDS011;17335;50.720;7.452;2023-10-31T08:03:15;3.17;;;1.30;;
30553;SDS011;17335;50.720;7.452;2023-10-31T08:05:42;3.03;;;1.40;;
30553;SDS011;17335;50.720;7.452;2023-10-31T08:08:08;2.58;;;1.05;;
30553;SDS011;17335;50.720;7.452;2023-10-31T08:10:35;1.42;;;1.10;;
30553;SDS011;17335;50.720;7.452;2023-10-31T08:13:02;1.92;;;1.10;;
30553;SDS011;17335;50.720;7.452;2023-10-31T08:15:28;4.72;;;1.30;;
30553;SDS011;17335;50.720;7.452;2023-10-31T08:17:55;6.63;;;1.42;;
30553;SDS011;17335;50.720;7.452;2023-10-31T08:20:21;2.45;;;1.40;;
30553;SDS011;17335;50.720;7.452;2023-10-31T08:22:48;2.20;;;1.23;;
30553;SDS011;17335;50.720;7.452;2023-10-31T08:25:15;2.42;;;1.35;;
30553;SDS011;17335;50.720;7.452;2023-10-31T08:27:41;4.78;;;1.60;;
30553;SDS011;17335;50.720;7.452;2023-10-31T08:30:08;2.60;;;1.17;;
30553;SDS011;17335;50.720;7.452;2023-10-31T08:32:35;2.80;;;1.35;;
30553;SDS011;17335;50.720;7.452;2023-10-31T08:35:01;2.65;;;1.33;;
30553;SDS011;17335;50.720;7.452;2023-10-31T08:37:29;2.03;;;1.20;;
30553;SDS011;17335;50.720;7.452;2023-10-31T08:39:55;3.97;;;1.10;;
30553;SDS011;17335;50.720;7.452;2023-10-31T08:42:22;2.13;;;1.23;;
30553;SDS011;17335;50.720;7.452;2023-10-31T08:44:48;2.50;;;1.17;;
30553;SDS011;17335;50.720;7.452;2023-10-31T08:47:16;4.05;;;1.10;;
30553;SDS011;17335;50.720;7.452;2023-10-31T08:49:44;1.50;;;1.02;;
30553;SDS011;17335;50.720;7.452;2023-10-31T08:52:11;2.25;;;1.00;;
30553;SDS011;17335;50.720;7.452;2023-10-31T08:54:37;2.15;;;1.10;;
30553;SDS011;17335;50.720;7.452;2023-10-31T08:57:04;2.72;;;1.20;;
30553;SDS011;17335;50.720;7.452;2023-10-31T08:59:30;1.23;;;0.90;;
30553;SDS011;17335;50.720;7.452;2023-10-31T09:01:57;1.42;;;0.80;;
30553;SDS011;17335;50.720;7.452;2023-10-31T09:04:24;0.98;;;0.77;;
30553;SDS011;17335;50.720;7.452;2023-10-31T09:06:50;1.15;;;0.80;;
30553;SDS011;17335;50.720;7.452;2023-10-31T09:09:16;1.85;;;1.00;;
30553;SDS011;17335;50.720;7.452;2023-10-31T09:11:43;1.70;;;1.00;;
30553;SDS011;17335;50.720;7.452;2023-10-31T09:14:10;4.25;;;1.35;;
30553;SDS011;17335;50.720;7.452;2023-10-31T09:16:37;1.20;;;0.82;;
30553;SDS011;17335;50.720;7.452;2023-10-31T09:19:04;2.55;;;1.02;;
30553;SDS011;17335;50.720;7.452;2023-10-31T09:21:30;1.20;;;0.73;;
30553;SDS011;17335;50.720;7.452;2023-10-31T09:23:57;1.55;;;0.80;;
30553;SDS011;17335;50.720;7.452;2023-10-31T09:26:24;2.33;;;0.90;;
30553;SDS011;17335;50.720;7.452;2023-10-31T09:28:50;1.50;;;0.90;;
30553;SDS011;17335;50.720;7.452;2023-10-31T09:31:17;1.10;;;0.90;;
30553;SDS011;17335;50.720;7.452;2023-10-31T09:33:44;1.02;;;0.70;;
30553;SDS011;17335;50.720;7.452;2023-10-31T09:36:12;2.15;;;0.80;;
30553;SDS011;17335;50.720;7.452;2023-10-31T09:38:40;0.93;;;0.65;;
30553;SDS011;17335;50.720;7.452;2023-10-31T09:41:07;2.65;;;0.93;;
30553;SDS011;17335;50.720;7.452;2023-10-31T09:43:33;2.33;;;0.85;;
30553;SDS011;17335;50.720;7.452;2023-10-31T09:46:00;3.45;;;1.00;;
30553;SDS011;17335;50.720;7.452;2023-10-31T09:48:27;1.98;;;0.90;;
30553;SDS011;17335;50.720;7.452;2023-10-31T09:50:54;2.88;;;0.88;;
30553;SDS011;17335;50.720;7.452;2023-10-31T09:53:22;2.10;;;0.80;;
30553;SDS011;17335;50.720;7.452;2023-10-31T09:55:50;2.50;;;0.82;;
30553;SDS011;17335;50.720;7.452;2023-10-31T09:58:20;2.47;;;0.90;;
30553;SDS011;17335;50.720;7.452;2023-10-31T10:00:47;1.58;;;0.80;;
30553;SDS011;17335;50.720;7.452;2023-10-31T10:03:13;1.20;;;0.77;;
30553;SDS011;17335;50.720;7.452;2023-10-31T10:05:41;0.80;;;0.70;;
30553;SDS011;17335;50.720;7.452;2023-10-31T10:08:10;1.30;;;0.70;;
30553;SDS011;17335;50.720;7.452;2023-10-31T10:10:37;1.10;;;0.60;;
30553;SDS011;17335;50.720;7.452;2023-10-31T10:13:03;4.13;;;0.93;;
30553;SDS011;17335;50.720;7.452;2023-10-31T10:15:30;0.70;;;0.70;;
30553;SDS011;17335;50.720;7.452;2023-10-31T10:18:09;1.23;;;0.80;;
30553;SDS011;17335;50.720;7.452;2023-10-31T10:20:36;1.20;;;0.88;;
30553;SDS011;17335;50.720;7.452;2023-10-31T10:23:20;0.95;;;0.70;;
30553;SDS011;17335;50.720;7.452;2023-10-31T10:25:50;1.50;;;0.80;;
30553;SDS011;17335;50.720;7.452;2023-10-31T10:28:16;2.67;;;0.95;;
30553;SDS011;17335;50.720;7.452;2023-10-31T10:30:45;3.63;;;1.00;;
30553;SDS011;17335;50.720;7.452;2023-10-31T10:33:13;4.00;;;0.80;;
30553;SDS011;17335;50.720;7.452;2023-10-31T10:35:41;1.35;;;0.80;;
30553;SDS011;17335;50.720;7.452;2023-10-31T10:38:12;1.95;;;0.70;;
30553;SDS011;17335;50.720;7.452;2023-10-31T10:40:43;0.98;;;0.60;;
30553;SDS011;17335;50.720;7.452;2023-10-31T10:43:21;1.33;;;0.70;;
30553;SDS011;17335;50.720;7.452;2023-10-31T10:45:55;1.15;;;0.80;;
30553;SDS011;17335;50.720;7.452;2023-10-31T10:48:27;1.20;;;0.60;;
30553;SDS011;17335;50.720;7.452;2023-10-31T10:50:57;1.48;;;0.60;;
30553;SDS011;17335;50.720;7.452;2023-10-31T10:53:29;3.53;;;0.80;;
30553;SDS011;17335;50.720;7.452;2023-10-31T10:56:00;4.95;;;0.73;;
30553;SDS011;17335;50.720;7.452;2023-10-31T10:58:34;5.13;;;0.90;;
30553;SDS011;17335;50.720;7.452;2023-10-31T11:01:07;1.63;;;0.80;;
30553;SDS011;17335;50.720;7.452;2023-10-31T11:03:34;2.00;;;0.70;;
30553;SDS011;17335;50.720;7.452;2023-10-31T11:06:02;1.48;;;0.95;;
30553;SDS011;17335;50.720;7.452;2023-10-31T11:08:30;4.30;;;1.00;;
30553;SDS011;17335;50.720;7.452;2023-10-31T11:10:57;1.27;;;0.70;;
30553;SDS011;17335;50.720;7.452;2023-10-31T11:13:24;2.22;;;0.82;;
30553;SDS011;17335;50.720;7.452;2023-10-31T11:15:52;0.95;;;0.75;;
30553;SDS011;17335;50.720;7.452;2023-10-31T11:18:22;2.58;;;1.00;;
30553;SDS011;17335;50.720;7.452;2023-10-31T11:20:49;1.05;;;0.70;;
30553;SDS011;17335;50.720;7.452;2023-10-31T11:23:16;1.33;;;0.70;;
30553;SDS011;17335;50.720;7.452;2023-10-31T11:25:43;1.02;;;0.52;;
30553;SDS011;17335;50.720;7.452;2023-10-31T11:28:16;1.42;;;0.90;;
30553;SDS011;17335;50.720;7.452;2023-10-31T11:30:45;3.13;;;0.98;;
30553;SDS011;17335;50.720;7.452;2023-10-31T11:33:15;1.35;;;0.60;;
30553;SDS011;17335;50.720;7.452;2023-10-31T11:35:48;2.45;;;0.88;;
30553;SDS011;17335;50.720;7.452;2023-10-31T11:38:16;1.92;;;1.00;;
30553;SDS011;17335;50.720;7.452;2023-10-31T11:43:20;1.10;;;0.70;;
30553;SDS011;17335;50.720;7.452;2023-10-31T11:45:48;1.98;;;0.77;;
30553;SDS011;17335;50.720;7.452;2023-10-31T11:48:15;1.73;;;0.88;;
30553;SDS011;17335;50.720;7.452;2023-10-31T11:50:42;2.97;;;1.10;;
30553;SDS011;17335;50.720;7.452;2023-10-31T11:55:41;2.78;;;0.73;;
30553;SDS011;17335;50.720;7.452;2023-10-31T11:58:26;2.10;;;0.88;;
30553;SDS011;17335;50.720;7.452;2023-10-31T12:01:00;1.80;;;0.87;;
30553;SDS011;17335;50.720;7.452;2023-10-31T12:03:42;2.40;;;0.68;;
30553;SDS011;17335;50.720;7.452;2023-10-31T12:06:14;1.40;;;0.65;;
30553;SDS011;17335;50.720;7.452;2023-10-31T12:08:41;1.42;;;0.73;;
30553;SDS011;17335;50.720;7.452;2023-10-31T12:11:16;2.08;;;0.82;;
30553;SDS011;17335;50.720;7.452;2023-10-31T12:13:51;2.25;;;0.80;;
30553;SDS011;17335;50.720;7.452;2023-10-31T12:16:27;2.22;;;0.80;;
30553;SDS011;17335;50.720;7.452;2023-10-31T12:18:59;1.40;;;0.85;;
30553;SDS011;17335;50.720;7.452;2023-10-31T12:21:33;3.35;;;0.90;;
30553;SDS011;17335;50.720;7.452;2023-10-31T12:24:04;2.40;;;1.00;;
30553;SDS011;17335;50.720;7.452;2023-10-31T12:26:33;1.50;;;0.95;;
30553;SDS011;17335;50.720;7.452;2023-10-31T12:29:14;1.30;;;0.75;;
30553;SDS011;17335;50.720;7.452;2023-10-31T12:31:45;1.38;;;0.80;;
30553;SDS011;17335;50.720;7.452;2023-10-31T12:34:17;2.40;;;1.05;;
30553;SDS011;17335;50.720;7.452;2023-10-31T12:36:48;2.47;;;0.88;;
30553;SDS011;17335;50.720;7.452;2023-10-31T12:39:16;1.77;;;1.00;;
30553;SDS011;17335;50.720;7.452;2023-10-31T12:41:47;2.17;;;0.95;;
30553;SDS011;17335;50.720;7.452;2023-10-31T12:44:15;1.85;;;1.00;;
30553;SDS011;17335;50.720;7.452;2023-10-31T12:46:47;1.98;;;0.98;;
30553;SDS011;17335;50.720;7.452;2023-10-31T12:49:17;4.50;;;0.85;;
30553;SDS011;17335;50.720;7.452;2023-10-31T12:51:55;5.32;;;1.20;;
30553;SDS011;17335;50.720;7.452;2023-10-31T12:54:34;1.25;;;0.85;;
30553;SDS011;17335;50.720;7.452;2023-10-31T12:57:02;2.15;;;1.00;;
30553;SDS011;17335;50.720;7.452;2023-10-31T12:59:31;5.35;;;0.98;;
30553;SDS011;17335;50.720;7.452;2023-10-31T13:01:58;2.58;;;1.25;;
30553;SDS011;17335;50.720;7.452;2023-10-31T13:04:26;3.85;;;0.80;;
30553;SDS011;17335;50.720;7.452;2023-10-31T13:07:02;5.95;;;1.08;;
30553;SDS011;17335;50.720;7.452;2023-10-31T13:09:36;5.00;;;0.93;;
30553;SDS011;17335;50.720;7.452;2023-10-31T13:12:08;2.40;;;1.10;;
30553;SDS011;17335;50.720;7.452;2023-10-31T13:14:37;3.22;;;1.00;;
30553;SDS011;17335;50.720;7.452;2023-10-31T13:17:05;1.55;;;1.00;;
30553;SDS011;17335;50.720;7.452;2023-10-31T13:19:32;3.67;;;1.20;;
30553;SDS011;17335;50.720;7.452;2023-10-31T13:21:58;6.53;;;1.27;;
30553;SDS011;17335;50.720;7.452;2023-10-31T13:24:25;3.70;;;1.25;;
30553;SDS011;17335;50.720;7.452;2023-10-31T13:26:52;1.88;;;0.82;;
30553;SDS011;17335;50.720;7.452;2023-10-31T13:29:22;3.50;;;1.00;;
30553;SDS011;17335;50.720;7.452;2023-10-31T13:31:51;3.10;;;1.10;;
30553;SDS011;17335;50.720;7.452;2023-10-31T13:34:18;3.20;;;0.80;;
30553;SDS011;17335;50.720;7.452;2023-10-31T13:36:45;6.00;;;1.35;;
30553;SDS011;17335;50.720;7.452;2023-10-31T13:39:11;3.50;;;1.00;;
30553;SDS011;17335;50.720;7.452;2023-10-31T13:41:38;1.25;;;0.77;;
30553;SDS011;17335;50.720;7.452;2023-10-31T13:44:05;5.05;;;1.33;;
30553;SDS011;17335;50.720;7.452;2023-10-31T13:46:32;1.88;;;0.88;;
30553;SDS011;17335;50.720;7.452;2023-10-31T13:48:58;1.77;;;0.90;;
30553;SDS011;17335;50.720;7.452;2023-10-31T13:51:25;2.03;;;0.93;;
30553;SDS011;17335;50.720;7.452;2023-10-31T13:53:51;2.85;;;0.88;;
30553;SDS011;17335;50.720;7.452;2023-10-31T13:56:18;4.68;;;1.10;;
30553;SDS011;17335;50.720;7.452;2023-10-31T13:58:44;4.22;;;1.10;;
30553;SDS011;17335;50.720;7.452;2023-10-31T14:01:11;4.10;;;0.90;;
30553;SDS011;17335;50.720;7.452;2023-10-31T14:03:37;2.55;;;0.95;;
30553;SDS011;17335;50.720;7.452;2023-10-31T14:06:04;1.90;;;0.98;;
30553;SDS011;17335;50.720;7.452;2023-10-31T14:08:31;2.65;;;0.80;;
30553;SDS011;17335;50.720;7.452;2023-10-31T14:10:58;2.58;;;0.90;;
30553;SDS011;17335;50.720;7.452;2023-10-31T14:13:25;1.40;;;0.90;;
30553;SDS011;17335;50.720;7.452;2023-10-31T14:15:51;1.75;;;0.90;;
30553;SDS011;17335;50.720;7.452;2023-10-31T14:18:18;1.80;;;0.90;;
30553;SDS011;17335;50.720;7.452;2023-10-31T14:20:45;1.33;;;0.80;;
30553;SDS011;17335;50.720;7.452;2023-10-31T14:23:11;1.15;;;0.95;;
30553;SDS011;17335;50.720;7.452;2023-10-31T14:25:38;5.55;;;1.10;;
30553;SDS011;17335;50.720;7.452;2023-10-31T14:28:07;6.47;;;1.20;;
30553;SDS011;17335;50.720;7.452;2023-10-31T14:30:34;2.33;;;0.98;;
30553;SDS011;17335;50.720;7.452;2023-10-31T14:33:00;2.97;;;0.93;;
30553;SDS011;17335;50.720;7.452;2023-10-31T14:35:27;2.28;;;1.10;;
30553;SDS011;17335;50.720;7.452;2023-10-31T14:37:54;3.50;;;1.40;;
30553;SDS011;17335;50.720;7.452;2023-10-31T14:40:20;2.47;;;1.00;;
30553;SDS011;17335;50.720;7.452;2023-10-31T14:42:47;3.70;;;1.10;;
30553;SDS011;17335;50.720;7.452;2023-10-31T14:45:15;4.22;;;1.20;;
30553;SDS011;17335;50.720;7.452;2023-10-31T14:47:41;4.32;;;1.50;;
30553;SDS011;17335;50.720;7.452;2023-10-31T14:50:08;2.83;;;1.00;;
30553;SDS011;17335;50.720;7.452;2023-10-31T14:52:35;5.80;;;1.63;;
30553;SDS011;17335;50.720;7.452;2023-10-31T14:55:01;4.75;;;1.10;;